sensor_id;sensor_type;location;lat;lon;timestamp;P1;durP1;ratioP1;P2;durP2;ratioP2
65764;SDS011;52915;53.718;19.946;2023-03-30T00:00:36;17.40;;;9.20;;
65764;SDS011;52915;53.718;19.946;2023-03-30T00:05:54;14.40;;;6.50;;
65764;SDS011;52915;53.718;19.946;2023-03-30T00:11:07;16.50;;;8.80;;
65764;SDS011;52915;53.718;19.946;2023-03-30T00:16:13;16.50;;;8.90;;
65764;SDS011;52915;53.718;19.946;2023-03-30T00:21:18;16.50;;;8.80;;
65764;SDS011;52915;53.718;19.946;2023-03-30T00:26:22;16.20;;;8.90;;
65764;SDS011;52915;53.718;19.946;2023-03-30T00:31:26;8.70;;;5.90;;
65764;SDS011;52915;53.718;19.946;2023-03-30T00:36:30;13.00;;;7.20;;
65764;SDS011;52915;53.718;19.946;2023-03-30T00:41:39;19.40;;;9.70;;
65764;SDS011;52915;53.718;19.946;2023-03-30T00:46:43;15.50;;;9.10;;
65764;SDS011;52915;53.718;19.946;2023-03-30T00:51:47;13.40;;;7.40;;
65764;SDS011;52915;53.718;19.946;2023-03-30T00:56:53;10.20;;;6.30;;
65764;SDS011;52915;53.718;19.946;2023-03-30T01:01:57;15.60;;;8.10;;
65764;SDS011;52915;53.718;19.946;2023-03-30T01:07:01;14.60;;;9.10;;
65764;SDS011;52915;53.718;19.946;2023-03-30T01:12:06;12.20;;;7.50;;
65764;SDS011;52915;53.718;19.946;2023-03-30T01:39:39;12.30;;;7.40;;
65764;SDS011;52915;53.718;19.946;2023-03-30T01:45:12;22.00;;;9.70;;
65764;SDS011;52915;53.718;19.946;2023-03-30T01:50:32;18.30;;;9.60;;
65764;SDS011;52915;53.718;19.946;2023-03-30T01:55:54;13.50;;;8.20;;
65764;SDS011;52915;53.718;19.946;2023-03-30T02:01:00;15.80;;;8.40;;
65764;SDS011;52915;53.718;19.946;2023-03-30T02:06:21;20.50;;;9.40;;
65764;SDS011;52915;53.718;19.946;2023-03-30T02:11:30;14.70;;;8.30;;
65764;SDS011;52915;53.718;19.946;2023-03-30T02:16:40;12.80;;;8.00;;
65764;SDS011;52915;53.718;19.946;2023-03-30T02:21:53;22.50;;;12.80;;
65764;SDS011;52915;53.718;19.946;2023-03-30T02:26:58;19.50;;;10.10;;
65764;SDS011;52915;53.718;19.946;2023-03-30T02:37:25;12.90;;;8.20;;
65764;SDS011;52915;53.718;19.946;2023-03-30T02:43:10;13.50;;;7.60;;
65764;SDS011;52915;53.718;19.946;2023-03-30T02:53:58;10.50;;;6.00;;
65764;SDS011;52915;53.718;19.946;2023-03-30T03:04:44;25.60;;;13.40;;
65764;SDS011;52915;53.718;19.946;2023-03-30T03:09:50;21.60;;;9.10;;
65764;SDS011;52915;53.718;19.946;2023-03-30T03:14:54;21.10;;;11.00;;
65764;SDS011;52915;53.718;19.946;2023-03-30T03:19:57;18.30;;;11.10;;
65764;SDS011;52915;53.718;19.946;2023-03-30T03:25:01;34.90;;;16.40;;
65764;SDS011;52915;53.718;19.946;2023-03-30T03:30:07;20.50;;;11.60;;
65764;SDS011;52915;53.718;19.946;2023-03-30T03:35:12;33.60;;;17.80;;
65764;SDS011;52915;53.718;19.946;2023-03-30T03:40:16;27.00;;;15.40;;
65764;SDS011;52915;53.718;19.946;2023-03-30T03:45:20;22.60;;;14.70;;
65764;SDS011;52915;53.718;19.946;2023-03-30T03:50:24;26.80;;;14.00;;
65764;SDS011;52915;53.718;19.946;2023-03-30T03:55:28;16.30;;;9.00;;
65764;SDS011;52915;53.718;19.946;2023-03-30T04:00:33;22.10;;;10.30;;
65764;SDS011;52915;53.718;19.946;2023-03-30T04:05:37;42.70;;;19.10;;
65764;SDS011;52915;53.718;19.946;2023-03-30T04:10:42;65.70;;;28.20;;
65764;SDS011;52915;53.718;19.946;2023-03-30T04:15:46;134.20;;;42.20;;
65764;SDS011;52915;53.718;19.946;2023-03-30T04:20:50;64.90;;;26.50;;
65764;SDS011;52915;53.718;19.946;2023-03-30T04:25:54;58.80;;;27.80;;
65764;SDS011;52915;53.718;19.946;2023-03-30T04:30:59;29.90;;;15.60;;
65764;SDS011;52915;53.718;19.946;2023-03-30T04:36:11;36.70;;;17.40;;
65764;SDS011;52915;53.718;19.946;2023-03-30T04:41:20;43.50;;;18.00;;
65764;SDS011;52915;53.718;19.946;2023-03-30T04:46:28;36.80;;;16.50;;
65764;SDS011;52915;53.718;19.946;2023-03-30T04:51:32;38.60;;;13.70;;
65764;SDS011;52915;53.718;19.946;2023-03-30T04:56:38;24.90;;;12.60;;
65764;SDS011;52915;53.718;19.946;2023-03-30T05:01:42;24.00;;;11.40;;
65764;SDS011;52915;53.718;19.946;2023-03-30T05:06:48;28.70;;;13.90;;
65764;SDS011;52915;53.718;19.946;2023-03-30T05:11:52;33.30;;;17.90;;
65764;SDS011;52915;53.718;19.946;2023-03-30T05:16:56;30.30;;;14.40;;
65764;SDS011;52915;53.718;19.946;2023-03-30T05:22:01;27.10;;;13.00;;
65764;SDS011;52915;53.718;19.946;2023-03-30T05:27:04;38.00;;;13.40;;
65764;SDS011;52915;53.718;19.946;2023-03-30T05:32:09;32.60;;;14.70;;
65764;SDS011;52915;53.718;19.946;2023-03-30T05:37:13;29.30;;;11.00;;
65764;SDS011;52915;53.718;19.946;2023-03-30T05:42:17;42.60;;;17.10;;
65764;SDS011;52915;53.718;19.946;2023-03-30T05:47:21;29.90;;;14.00;;
65764;SDS011;52915;53.718;19.946;2023-03-30T05:52:29;23.90;;;12.40;;
65764;SDS011;52915;53.718;19.946;2023-03-30T05:57:35;26.90;;;12.80;;
65764;SDS011;52915;53.718;19.946;2023-03-30T06:02:39;26.90;;;15.90;;
65764;SDS011;52915;53.718;19.946;2023-03-30T06:07:43;21.40;;;12.50;;
65764;SDS011;52915;53.718;19.946;2023-03-30T06:12:48;16.80;;;9.50;;
65764;SDS011;52915;53.718;19.946;2023-03-30T06:17:51;82.90;;;41.70;;
65764;SDS011;52915;53.718;19.946;2023-03-30T06:22:55;35.30;;;14.70;;
65764;SDS011;52915;53.718;19.946;2023-03-30T06:27:59;68.50;;;29.70;;
65764;SDS011;52915;53.718;19.946;2023-03-30T06:33:03;56.00;;;26.90;;
65764;SDS011;52915;53.718;19.946;2023-03-30T06:38:07;41.30;;;19.30;;
65764;SDS011;52915;53.718;19.946;2023-03-30T06:43:20;21.70;;;10.30;;
65764;SDS011;52915;53.718;19.946;2023-03-30T06:48:26;38.10;;;18.20;;
65764;SDS011;52915;53.718;19.946;2023-03-30T06:53:29;48.00;;;22.20;;
65764;SDS011;52915;53.718;19.946;2023-03-30T06:58:33;48.70;;;22.50;;
65764;SDS011;52915;53.718;19.946;2023-03-30T07:03:38;39.00;;;18.70;;
65764;SDS011;52915;53.718;19.946;2023-03-30T07:08:43;24.10;;;14.90;;
65764;SDS011;52915;53.718;19.946;2023-03-30T07:13:47;35.10;;;18.50;;
65764;SDS011;52915;53.718;19.946;2023-03-30T07:18:51;21.60;;;12.50;;
65764;SDS011;52915;53.718;19.946;2023-03-30T07:23:54;39.40;;;18.20;;
65764;SDS011;52915;53.718;19.946;2023-03-30T07:28:59;25.80;;;12.40;;
65764;SDS011;52915;53.718;19.946;2023-03-30T07:34:03;27.60;;;15.90;;
65764;SDS011;52915;53.718;19.946;2023-03-30T07:39:09;22.80;;;14.10;;
65764;SDS011;52915;53.718;19.946;2023-03-30T07:44:13;33.20;;;17.10;;
65764;SDS011;52915;53.718;19.946;2023-03-30T07:49:17;26.80;;;14.00;;
65764;SDS011;52915;53.718;19.946;2023-03-30T07:54:21;23.50;;;12.60;;
65764;SDS011;52915;53.718;19.946;2023-03-30T07:59:25;29.10;;;16.90;;
65764;SDS011;52915;53.718;19.946;2023-03-30T08:04:29;21.70;;;13.50;;
65764;SDS011;52915;53.718;19.946;2023-03-30T08:09:33;30.40;;;16.80;;
65764;SDS011;52915;53.718;19.946;2023-03-30T08:14:38;37.50;;;12.90;;
65764;SDS011;52915;53.718;19.946;2023-03-30T08:19:42;26.20;;;15.20;;
65764;SDS011;52915;53.718;19.946;2023-03-30T08:24:45;19.70;;;12.80;;
65764;SDS011;52915;53.718;19.946;2023-03-30T08:29:49;22.50;;;13.40;;
65764;SDS011;52915;53.718;19.946;2023-03-30T08:34:53;22.80;;;12.40;;
65764;SDS011;52915;53.718;19.946;2023-03-30T08:39:57;17.90;;;11.50;;
65764;SDS011;52915;53.718;19.946;2023-03-30T08:45:01;37.10;;;18.20;;
65764;SDS011;52915;53.718;19.946;2023-03-30T08:55:40;33.80;;;18.30;;
65764;SDS011;52915;53.718;19.946;2023-03-30T09:00:59;34.40;;;18.30;;
65764;SDS011;52915;53.718;19.946;2023-03-30T09:11:57;17.00;;;12.20;;
65764;SDS011;52915;53.718;19.946;2023-03-30T09:17:20;18.70;;;12.10;;
65764;SDS011;52915;53.718;19.946;2023-03-30T09:22:34;33.40;;;17.80;;
65764;SDS011;52915;53.718;19.946;2023-03-30T09:38:31;25.80;;;14.00;;
65764;SDS011;52915;53.718;19.946;2023-03-30T09:43:43;33.70;;;19.30;;
65764;SDS011;52915;53.718;19.946;2023-03-30T09:48:48;29.90;;;16.30;;
65764;SDS011;52915;53.718;19.946;2023-03-30T09:54:03;36.00;;;18.20;;
65764;SDS011;52915;53.718;19.946;2023-03-30T09:59:41;32.00;;;15.10;;
65764;SDS011;52915;53.718;19.946;2023-03-30T10:15:37;22.90;;;12.70;;
65764;SDS011;52915;53.718;19.946;2023-03-30T10:20:46;21.80;;;13.70;;
65764;SDS011;52915;53.718;19.946;2023-03-30T10:26:00;22.50;;;13.70;;
65764;SDS011;52915;53.718;19.946;2023-03-30T10:31:13;19.60;;;11.70;;
65764;SDS011;52915;53.718;19.946;2023-03-30T10:36:19;22.70;;;13.30;;
65764;SDS011;52915;53.718;19.946;2023-03-30T10:41:24;19.10;;;10.60;;
65764;SDS011;52915;53.718;19.946;2023-03-30T10:46:29;18.30;;;11.30;;
65764;SDS011;52915;53.718;19.946;2023-03-30T10:52:02;13.30;;;8.90;;
65764;SDS011;52915;53.718;19.946;2023-03-30T10:57:21;17.60;;;12.80;;
65764;SDS011;52915;53.718;19.946;2023-03-30T11:07:48;23.30;;;13.70;;
65764;SDS011;52915;53.718;19.946;2023-03-30T11:13:05;20.30;;;12.80;;
65764;SDS011;52915;53.718;19.946;2023-03-30T11:18:59;18.60;;;10.70;;
65764;SDS011;52915;53.718;19.946;2023-03-30T11:24:19;14.50;;;10.40;;
65764;SDS011;52915;53.718;19.946;2023-03-30T11:35:00;13.60;;;9.90;;
65764;SDS011;52915;53.718;19.946;2023-03-30T11:40:20;18.70;;;11.50;;
65764;SDS011;52915;53.718;19.946;2023-03-30T11:45:55;27.50;;;16.30;;
65764;SDS011;52915;53.718;19.946;2023-03-30T12:13:45;67.10;;;33.70;;
65764;SDS011;52915;53.718;19.946;2023-03-30T12:24:38;31.70;;;15.30;;
65764;SDS011;52915;53.718;19.946;2023-03-30T12:30:24;32.90;;;18.00;;
65764;SDS011;52915;53.718;19.946;2023-03-30T12:41:45;20.80;;;14.00;;
65764;SDS011;52915;53.718;19.946;2023-03-30T12:53:01;18.10;;;10.90;;
65764;SDS011;52915;53.718;19.946;2023-03-30T12:58:56;28.40;;;14.00;;
65764;SDS011;52915;53.718;19.946;2023-03-30T13:04:21;22.20;;;13.00;;
65764;SDS011;52915;53.718;19.946;2023-03-30T13:09:31;316.70;;;107.60;;
65764;SDS011;52915;53.718;19.946;2023-03-30T13:20:03;244.30;;;120.50;;
65764;SDS011;52915;53.718;19.946;2023-03-30T13:25:38;164.90;;;95.50;;
65764;SDS011;52915;53.718;19.946;2023-03-30T13:30:47;195.10;;;110.10;;
65764;SDS011;52915;53.718;19.946;2023-03-30T13:36:03;266.70;;;94.80;;
65764;SDS011;52915;53.718;19.946;2023-03-30T13:52:45;134.70;;;70.50;;
65764;SDS011;52915;53.718;19.946;2023-03-30T13:58:01;72.90;;;44.80;;
65764;SDS011;52915;53.718;19.946;2023-03-30T14:03:32;132.70;;;70.40;;
65764;SDS011;52915;53.718;19.946;2023-03-30T14:08:41;109.30;;;57.70;;
65764;SDS011;52915;53.718;19.946;2023-03-30T14:13:51;108.90;;;49.90;;
65764;SDS011;52915;53.718;19.946;2023-03-30T14:19:18;82.90;;;38.90;;
65764;SDS011;52915;53.718;19.946;2023-03-30T14:24:29;164.40;;;63.40;;
65764;SDS011;52915;53.718;19.946;2023-03-30T14:29:43;147.90;;;61.60;;
65764;SDS011;52915;53.718;19.946;2023-03-30T14:34:53;88.50;;;40.50;;
65764;SDS011;52915;53.718;19.946;2023-03-30T14:39:57;40.10;;;22.90;;
65764;SDS011;52915;53.718;19.946;2023-03-30T14:45:01;46.40;;;24.70;;
65764;SDS011;52915;53.718;19.946;2023-03-30T14:50:07;72.10;;;36.80;;
65764;SDS011;52915;53.718;19.946;2023-03-30T14:55:21;56.20;;;28.70;;
65764;SDS011;52915;53.718;19.946;2023-03-30T15:00:46;135.80;;;60.30;;
65764;SDS011;52915;53.718;19.946;2023-03-30T15:05:51;89.80;;;38.00;;
65764;SDS011;52915;53.718;19.946;2023-03-30T15:11:08;83.50;;;37.40;;
65764;SDS011;52915;53.718;19.946;2023-03-30T15:16:28;305.80;;;123.80;;
65764;SDS011;52915;53.718;19.946;2023-03-30T15:21:45;219.50;;;101.50;;
65764;SDS011;52915;53.718;19.946;2023-03-30T15:27:06;148.30;;;62.10;;
65764;SDS011;52915;53.718;19.946;2023-03-30T15:32:20;168.30;;;73.40;;
65764;SDS011;52915;53.718;19.946;2023-03-30T15:37:31;208.70;;;115.10;;
65764;SDS011;52915;53.718;19.946;2023-03-30T15:42:36;254.00;;;111.50;;
65764;SDS011;52915;53.718;19.946;2023-03-30T15:47:40;336.40;;;142.20;;
65764;SDS011;52915;53.718;19.946;2023-03-30T15:52:45;468.20;;;171.90;;
65764;SDS011;52915;53.718;19.946;2023-03-30T15:57:52;269.90;;;97.60;;
65764;SDS011;52915;53.718;19.946;2023-03-30T16:02:59;210.10;;;78.20;;
65764;SDS011;52915;53.718;19.946;2023-03-30T16:08:04;86.90;;;39.90;;
65764;SDS011;52915;53.718;19.946;2023-03-30T16:13:09;231.20;;;99.60;;
65764;SDS011;52915;53.718;19.946;2023-03-30T16:18:15;122.90;;;55.00;;
65764;SDS011;52915;53.718;19.946;2023-03-30T16:23:19;168.30;;;73.50;;
65764;SDS011;52915;53.718;19.946;2023-03-30T16:28:23;103.70;;;56.80;;
65764;SDS011;52915;53.718;19.946;2023-03-30T16:33:27;98.50;;;52.60;;
65764;SDS011;52915;53.718;19.946;2023-03-30T16:38:32;78.30;;;40.80;;
65764;SDS011;52915;53.718;19.946;2023-03-30T16:43:35;162.50;;;71.10;;
65764;SDS011;52915;53.718;19.946;2023-03-30T16:48:39;88.10;;;44.30;;
65764;SDS011;52915;53.718;19.946;2023-03-30T16:53:43;143.80;;;58.00;;
65764;SDS011;52915;53.718;19.946;2023-03-30T16:58:47;288.60;;;116.50;;
65764;SDS011;52915;53.718;19.946;2023-03-30T17:03:52;254.50;;;91.10;;
65764;SDS011;52915;53.718;19.946;2023-03-30T17:08:56;321.20;;;99.50;;
65764;SDS011;52915;53.718;19.946;2023-03-30T17:14:02;299.30;;;108.80;;
65764;SDS011;52915;53.718;19.946;2023-03-30T17:19:11;167.30;;;51.00;;
65764;SDS011;52915;53.718;19.946;2023-03-30T17:24:16;115.90;;;48.70;;
65764;SDS011;52915;53.718;19.946;2023-03-30T17:29:20;194.90;;;62.30;;
65764;SDS011;52915;53.718;19.946;2023-03-30T17:38:22;334.20;;;110.00;;
65764;SDS011;52915;53.718;19.946;2023-03-30T17:43:27;127.10;;;52.90;;
65764;SDS011;52915;53.718;19.946;2023-03-30T17:52:58;255.10;;;88.00;;
65764;SDS011;52915;53.718;19.946;2023-03-30T17:58:02;203.70;;;75.10;;
65764;SDS011;52915;53.718;19.946;2023-03-30T18:03:06;122.60;;;47.20;;
65764;SDS011;52915;53.718;19.946;2023-03-30T18:08:15;220.60;;;88.40;;
65764;SDS011;52915;53.718;19.946;2023-03-30T18:13:21;147.70;;;63.30;;
65764;SDS011;52915;53.718;19.946;2023-03-30T18:18:28;129.20;;;53.70;;
65764;SDS011;52915;53.718;19.946;2023-03-30T18:23:34;92.90;;;42.00;;
65764;SDS011;52915;53.718;19.946;2023-03-30T18:28:38;168.90;;;76.70;;
65764;SDS011;52915;53.718;19.946;2023-03-30T18:33:46;157.00;;;64.20;;
65764;SDS011;52915;53.718;19.946;2023-03-30T18:38:54;215.50;;;81.00;;
65764;SDS011;52915;53.718;19.946;2023-03-30T18:43:58;203.30;;;76.00;;
65764;SDS011;52915;53.718;19.946;2023-03-30T18:49:02;269.80;;;93.20;;
65764;SDS011;52915;53.718;19.946;2023-03-30T18:54:06;209.70;;;82.20;;
65764;SDS011;52915;53.718;19.946;2023-03-30T18:59:13;187.60;;;76.90;;
65764;SDS011;52915;53.718;19.946;2023-03-30T19:04:27;163.60;;;70.80;;
65764;SDS011;52915;53.718;19.946;2023-03-30T19:09:35;93.40;;;45.60;;
65764;SDS011;52915;53.718;19.946;2023-03-30T19:14:45;111.80;;;55.30;;
65764;SDS011;52915;53.718;19.946;2023-03-30T19:19:49;182.10;;;78.70;;
65764;SDS011;52915;53.718;19.946;2023-03-30T19:24:56;106.20;;;44.90;;
65764;SDS011;52915;53.718;19.946;2023-03-30T19:30:05;145.40;;;58.90;;
65764;SDS011;52915;53.718;19.946;2023-03-30T19:35:11;102.80;;;45.70;;
65764;SDS011;52915;53.718;19.946;2023-03-30T19:40:18;123.70;;;52.10;;
65764;SDS011;52915;53.718;19.946;2023-03-30T19:45:22;149.50;;;72.60;;
65764;SDS011;52915;53.718;19.946;2023-03-30T19:50:28;117.80;;;55.20;;
65764;SDS011;52915;53.718;19.946;2023-03-30T19:55:34;114.80;;;54.80;;
65764;SDS011;52915;53.718;19.946;2023-03-30T20:00:39;97.10;;;42.50;;
65764;SDS011;52915;53.718;19.946;2023-03-30T20:05:48;131.00;;;47.00;;
65764;SDS011;52915;53.718;19.946;2023-03-30T20:10:53;104.30;;;45.20;;
65764;SDS011;52915;53.718;19.946;2023-03-30T20:16:02;97.30;;;42.50;;
65764;SDS011;52915;53.718;19.946;2023-03-30T20:21:08;104.30;;;38.70;;
65764;SDS011;52915;53.718;19.946;2023-03-30T20:26:15;126.20;;;43.40;;
65764;SDS011;52915;53.718;19.946;2023-03-30T20:31:21;104.40;;;36.80;;
65764;SDS011;52915;53.718;19.946;2023-03-30T20:36:26;98.70;;;34.30;;
65764;SDS011;52915;53.718;19.946;2023-03-30T20:41:31;79.70;;;33.90;;
65764;SDS011;52915;53.718;19.946;2023-03-30T20:51:45;66.70;;;29.70;;
65764;SDS011;52915;53.718;19.946;2023-03-30T20:56:52;73.00;;;30.00;;
65764;SDS011;52915;53.718;19.946;2023-03-30T21:01:56;80.30;;;37.50;;
65764;SDS011;52915;53.718;19.946;2023-03-30T21:07:01;79.80;;;35.10;;
65764;SDS011;52915;53.718;19.946;2023-03-30T21:12:06;76.50;;;34.90;;
65764;SDS011;52915;53.718;19.946;2023-03-30T21:17:11;55.60;;;25.10;;
65764;SDS011;52915;53.718;19.946;2023-03-30T21:22:15;107.90;;;42.70;;
65764;SDS011;52915;53.718;19.946;2023-03-30T21:27:21;321.00;;;113.60;;
65764;SDS011;52915;53.718;19.946;2023-03-30T21:32:24;127.80;;;50.10;;
65764;SDS011;52915;53.718;19.946;2023-03-30T21:37:28;109.80;;;46.90;;
65764;SDS011;52915;53.718;19.946;2023-03-30T21:42:33;113.20;;;37.90;;
65764;SDS011;52915;53.718;19.946;2023-03-30T21:47:37;129.70;;;43.70;;
65764;SDS011;52915;53.718;19.946;2023-03-30T21:52:42;141.10;;;53.60;;
65764;SDS011;52915;53.718;19.946;2023-03-30T21:57:46;137.00;;;52.90;;
65764;SDS011;52915;53.718;19.946;2023-03-30T22:02:49;102.60;;;39.10;;
65764;SDS011;52915;53.718;19.946;2023-03-30T22:07:53;114.20;;;45.80;;
65764;SDS011;52915;53.718;19.946;2023-03-30T22:12:56;129.90;;;50.80;;
65764;SDS011;52915;53.718;19.946;2023-03-30T22:18:01;150.10;;;61.80;;
65764;SDS011;52915;53.718;19.946;2023-03-30T22:23:06;121.80;;;49.30;;
65764;SDS011;52915;53.718;19.946;2023-03-30T22:28:10;124.40;;;48.80;;
65764;SDS011;52915;53.718;19.946;2023-03-30T22:33:14;120.70;;;50.80;;
65764;SDS011;52915;53.718;19.946;2023-03-30T22:38:19;136.90;;;54.10;;
65764;SDS011;52915;53.718;19.946;2023-03-30T22:43:22;76.20;;;38.30;;
65764;SDS011;52915;53.718;19.946;2023-03-30T22:48:26;88.70;;;34.40;;
65764;SDS011;52915;53.718;19.946;2023-03-30T22:53:30;75.50;;;32.70;;
65764;SDS011;52915;53.718;19.946;2023-03-30T22:58:34;258.00;;;56.40;;
65764;SDS011;52915;53.718;19.946;2023-03-30T23:03:38;595.10;;;173.10;;
65764;SDS011;52915;53.718;19.946;2023-03-30T23:08:42;351.20;;;99.40;;
65764;SDS011;52915;53.718;19.946;2023-03-30T23:13:49;314.90;;;101.70;;
65764;SDS011;52915;53.718;19.946;2023-03-30T23:18:54;183.60;;;64.50;;
65764;SDS011;52915;53.718;19.946;2023-03-30T23:23:58;141.40;;;51.10;;
65764;SDS011;52915;53.718;19.946;2023-03-30T23:29:06;171.30;;;68.20;;
65764;SDS011;52915;53.718;19.946;2023-03-30T23:34:11;121.70;;;48.30;;
65764;SDS011;52915;53.718;19.946;2023-03-30T23:39:15;105.00;;;46.20;;
65764;SDS011;52915;53.718;19.946;2023-03-30T23:44:19;90.20;;;40.00;;
65764;SDS011;52915;53.718;19.946;2023-03-30T23:49:23;79.90;;;37.20;;
65764;SDS011;52915;53.718;19.946;2023-03-30T23:54:27;96.00;;;41.30;;
65764;SDS011;52915;53.718;19.946;2023-03-30T23:59:35;90.60;;;41.10;;
